MRS weather

Marseille Provence Airport
Marseille, Provence-Alpes-Côte-d'Azur, France

Public forecast

Using degrees Celsius for public forecast. Weather courtesy of forecast.io.

METAR (pilot weather report)

Retrieved 2019/03/26 03:30 UTC (13 minutes ago):

LFML 260330Z AUTO 31019KT CAVOK 09/M02 Q1015 BECMG 34015G25KT

TAF (pilot weather forecast)

Retrieved 2019/03/26 03:24 UTC (19 minutes ago):

TAF TAF LFML 260200Z 2603/2709 33020G35KT CAVOK TX18/2612Z TN06/2606Z BECMG 2605/2606 34015G25KT BECMG 2608/2609 34010KT BECMG 2611/2613 34020G30KT BECMG 2617/2618 34010KT